Skip Navigation Links Skip Navigation Links

Current Weather

Biggin Hill, United Kingdom

For information only: do not use for flight planning or navigation.
Latest weather
Observation time Tuesday, September 28, 2021 11:20 AM BST
Local time Tuesday, September 28, 2021 11:45 AM BST
Flight conditions Visual Meteorological Conditions
Winds
Wind direction South-Southeast (160°)
Wind speed 12 mph
Visibility 6.2 mi.
Present weather VCSH
Sky condition
Ceiling unlimited
Cloud layer scattered clouds 2,000 ft.
Temperature 59°F
Dewpoint 55°F
Altimeter 30.06 in.Hg
Derived measurements
Relative humidity 88%
Density altitude 48 ft.
METAR EGKB 281020Z 16010KT 9999 VCSH SCT020 15/13 Q1018

Settings

Location code

InnerDrive.Weather 4.0.6770.0 Release CLR 4.0.30319.42000
Copyright ©2018 Inner Drive Technology. All rights reserved. Portions Copyright ©1986-2018 David Braverman.

Find weather

Site navigation


Skip Navigation Links

Place info

Page info

PayPal - The safer, easier way to pay online!

Return home.

Copyright ©2021 Inner Drive Technology. Purveyors of fine, hand-crafted computer software. Page printed 2021-09-28T10:45:59 UTC.